createdAt,value
2023-05-15T00:00:11.742Z,1008.63
2023-05-15T00:01:11.732Z,1008.60
2023-05-15T00:02:11.746Z,1008.59
2023-05-15T00:03:11.855Z,1008.58
2023-05-15T00:04:11.730Z,1008.57
2023-05-15T00:05:11.774Z,1008.54
2023-05-15T00:06:11.700Z,1008.55
2023-05-15T00:07:11.700Z,1008.52
2023-05-15T00:08:11.698Z,1008.52
2023-05-15T00:09:11.686Z,1008.49
2023-05-15T00:10:11.674Z,1008.52
2023-05-15T00:11:11.660Z,1008.48
2023-05-15T00:12:11.667Z,1008.46
2023-05-15T00:13:11.657Z,1008.47
2023-05-15T00:14:11.640Z,1008.46
2023-05-15T00:15:11.643Z,1008.45
2023-05-15T00:16:11.760Z,1008.42
2023-05-15T00:17:11.616Z,1008.42
2023-05-15T00:18:11.647Z,1008.42
2023-05-15T00:19:11.668Z,1008.35
2023-05-15T00:20:11.604Z,1008.34
2023-05-15T00:21:11.598Z,1008.34
2023-05-15T00:22:11.602Z,1008.33
2023-05-15T00:23:11.578Z,1008.31
2023-05-15T00:24:11.567Z,1008.33
2023-05-15T00:25:11.559Z,1008.35
2023-05-15T00:26:11.558Z,1008.33
2023-05-15T00:27:11.550Z,1008.33
2023-05-15T00:28:11.545Z,1008.32
2023-05-15T00:29:11.541Z,1008.33
2023-05-15T00:30:11.535Z,1008.30
2023-05-15T00:31:11.549Z,1008.31
2023-05-15T00:32:11.516Z,1008.31
2023-05-15T00:33:11.512Z,1008.28
2023-05-15T00:34:11.504Z,1008.29
2023-05-15T00:35:11.497Z,1008.26
2023-05-15T00:36:11.525Z,1008.22
2023-05-15T00:37:11.481Z,1008.25
2023-05-15T00:38:11.475Z,1008.24
2023-05-15T00:39:11.474Z,1008.18
2023-05-15T00:40:11.466Z,1008.15
2023-05-15T00:41:11.463Z,1008.16
2023-05-15T00:42:11.450Z,1008.13
2023-05-15T00:43:11.441Z,1008.13
2023-05-15T00:44:11.446Z,1008.10
2023-05-15T00:45:11.428Z,1008.08
2023-05-15T00:46:11.437Z,1008.07
2023-05-15T00:47:11.506Z,1008.06
2023-05-15T00:48:11.406Z,1008.04
2023-05-15T00:49:11.399Z,1008.02
2023-05-15T00:50:11.402Z,1008.00
2023-05-15T00:51:11.380Z,1007.97
2023-05-15T00:52:11.379Z,1007.95
2023-05-15T00:53:11.368Z,1007.94
2023-05-15T00:54:11.430Z,1007.89
2023-05-15T00:55:11.363Z,1007.94
2023-05-15T00:56:11.354Z,1007.93
2023-05-15T00:57:11.345Z,1007.89
2023-05-15T00:58:11.358Z,1007.93
2023-05-15T00:59:11.328Z,1007.88
2023-05-15T01:00:11.359Z,1007.92
2023-05-15T01:01:11.377Z,1007.86
2023-05-15T01:02:11.354Z,1007.90
2023-05-15T01:03:11.468Z,1007.86
2023-05-15T01:04:11.290Z,1007.88
2023-05-15T01:05:11.285Z,1007.85
2023-05-15T01:06:11.275Z,1007.89
2023-05-15T01:07:11.274Z,1007.87
2023-05-15T01:08:11.283Z,1007.84
2023-05-15T01:09:11.270Z,1007.86
2023-05-15T01:10:11.247Z,1007.84
2023-05-15T01:11:11.242Z,1007.83
2023-05-15T01:12:11.246Z,1007.81
2023-05-15T01:13:11.226Z,1007.79
2023-05-15T01:14:11.219Z,1007.81
2023-05-15T01:15:11.233Z,1007.75
2023-05-15T01:16:11.208Z,1007.77
2023-05-15T01:17:11.273Z,1007.77
2023-05-15T01:18:11.253Z,1007.73
2023-05-15T01:19:11.328Z,1007.75
2023-05-15T01:20:11.180Z,1007.74
2023-05-15T01:21:11.163Z,1007.70
2023-05-15T01:22:11.176Z,1007.68
2023-05-15T01:24:53.856Z,1007.65
2023-05-15T01:25:53.842Z,1007.62
2023-05-15T01:27:57.820Z,1007.61
2023-05-15T01:28:57.806Z,1007.61
2023-05-15T01:31:01.782Z,1007.58
2023-05-15T01:32:01.790Z,1007.59
2023-05-15T01:34:05.735Z,1007.58
2023-05-15T01:35:05.734Z,1007.61
2023-05-15T01:37:09.701Z,1007.61
2023-05-15T01:38:09.682Z,1007.62
2023-05-15T01:40:02.611Z,1007.59
2023-05-15T01:41:02.574Z,1007.60
2023-05-15T01:43:06.554Z,1007.59
2023-05-15T01:44:06.543Z,1007.59
2023-05-15T01:46:10.531Z,1007.57
2023-05-15T01:47:10.513Z,1007.54
2023-05-15T01:49:15.086Z,1007.50
2023-05-15T01:50:14.876Z,1007.52
2023-05-15T01:52:18.711Z,1007.51
2023-05-15T01:53:18.691Z,1007.53
2023-05-15T01:55:22.807Z,1007.52
2023-05-15T01:56:22.672Z,1007.52
2023-05-15T01:58:26.630Z,1007.48
2023-05-15T01:59:26.604Z,1007.47
2023-05-15T02:01:30.644Z,1007.49
2023-05-15T02:02:30.697Z,1007.49
2023-05-15T02:04:34.570Z,1007.45
2023-05-15T02:05:34.541Z,1007.43
2023-05-15T02:07:38.518Z,1007.50
2023-05-15T02:08:38.497Z,1007.52
2023-05-15T02:10:42.472Z,1007.44
2023-05-15T02:11:42.477Z,1007.44
2023-05-15T02:13:46.444Z,1007.49
2023-05-15T02:14:46.414Z,1007.47
2023-05-15T02:16:50.410Z,1007.44
2023-05-15T02:17:50.404Z,1007.43
2023-05-15T02:19:43.277Z,1007.43
2023-05-15T02:20:43.260Z,1007.41
2023-05-15T02:22:47.234Z,1007.41
2023-05-15T02:23:47.214Z,1007.41
2023-05-15T02:25:51.187Z,1007.44
2023-05-15T02:26:51.189Z,1007.45
2023-05-15T02:28:55.205Z,1007.38
2023-05-15T02:29:55.133Z,1007.37
2023-05-15T02:31:59.161Z,1007.31
2023-05-15T02:32:59.132Z,1007.33
2023-05-15T02:35:03.058Z,1007.30
2023-05-15T02:36:03.056Z,1007.29
2023-05-15T02:38:07.023Z,1007.30
2023-05-15T02:39:07.003Z,1007.27
2023-05-15T02:41:10.989Z,1007.22
2023-05-15T02:42:10.967Z,1007.20
2023-05-15T02:44:14.939Z,1007.13
2023-05-15T02:45:14.930Z,1007.13
2023-05-15T02:47:18.908Z,1007.11
2023-05-15T02:48:18.880Z,1007.11
2023-05-15T02:50:11.792Z,1007.10
2023-05-15T02:51:11.802Z,1007.10
2023-05-15T02:53:15.746Z,1007.14
2023-05-15T02:54:15.731Z,1007.08
2023-05-15T02:56:19.706Z,1007.11
2023-05-15T02:57:19.683Z,1007.08
2023-05-15T02:59:23.651Z,1007.08
2023-05-15T03:00:23.642Z,1007.07
2023-05-15T03:02:27.641Z,1007.05
2023-05-15T03:03:27.597Z,1007.06
2023-05-15T03:05:31.577Z,1006.99
2023-05-15T03:06:31.604Z,1006.98
2023-05-15T03:08:35.536Z,1006.96
2023-05-15T03:09:35.527Z,1006.98
2023-05-15T03:11:39.494Z,1006.99
2023-05-15T03:12:39.472Z,1007.00
2023-05-15T03:14:43.458Z,1007.01
2023-05-15T03:15:43.443Z,1006.99
2023-05-15T03:17:47.426Z,1006.98
2023-05-15T03:18:47.951Z,1007.01
2023-05-15T03:20:51.370Z,1006.95
2023-05-15T03:21:51.365Z,1006.98
2023-05-15T03:23:55.325Z,1006.92
2023-05-15T03:24:55.308Z,1006.93
2023-05-15T03:26:59.282Z,1006.91
2023-05-15T03:27:59.264Z,1006.94
2023-05-15T03:29:52.200Z,1006.91
2023-05-15T03:30:52.165Z,1006.92
2023-05-15T03:32:56.183Z,1006.93
2023-05-15T03:33:56.112Z,1006.91
2023-05-15T03:36:00.113Z,1006.86
2023-05-15T03:37:00.069Z,1006.90
2023-05-15T03:39:04.039Z,1006.86
2023-05-15T03:40:04.022Z,1006.84
2023-05-15T03:42:08.012Z,1006.79
2023-05-15T03:43:07.975Z,1006.79
2023-05-15T03:45:11.943Z,1006.82
2023-05-15T03:46:12.798Z,1006.81
2023-05-15T03:48:15.906Z,1006.80
2023-05-15T03:49:15.892Z,1006.77
2023-05-15T03:51:19.863Z,1006.80
2023-05-15T03:52:19.839Z,1006.78
2023-05-15T03:54:23.812Z,1006.76
2023-05-15T03:55:23.914Z,1006.77
2023-05-15T03:57:27.782Z,1006.72
2023-05-15T03:58:27.760Z,1006.69
2023-05-15T04:00:20.664Z,1006.69
2023-05-15T04:01:20.644Z,1006.69
2023-05-15T04:03:24.924Z,1006.71
2023-05-15T04:04:24.605Z,1006.69
2023-05-15T04:06:28.581Z,1006.69
2023-05-15T04:07:28.564Z,1006.70
2023-05-15T04:09:32.535Z,1006.69
2023-05-15T04:10:32.521Z,1006.75
2023-05-15T04:12:36.502Z,1006.72
2023-05-15T04:13:36.483Z,1006.70
2023-05-15T04:15:40.470Z,1006.70
2023-05-15T04:16:40.471Z,1006.73
2023-05-15T04:18:44.449Z,1006.74
2023-05-15T04:19:44.393Z,1006.70
2023-05-15T04:21:48.372Z,1006.70
2023-05-15T04:22:48.363Z,1006.66
2023-05-15T04:24:52.338Z,1006.68
2023-05-15T04:25:52.312Z,1006.66
2023-05-15T04:27:56.306Z,1006.66
2023-05-15T04:29:03.526Z,1006.61
2023-05-15T04:31:00.269Z,1006.66
2023-05-15T04:32:00.310Z,1006.66
2023-05-15T04:34:04.217Z,1006.63
2023-05-15T04:35:04.197Z,1006.65
2023-05-15T04:37:08.169Z,1006.63
2023-05-15T04:38:08.158Z,1006.60
2023-05-15T04:40:01.072Z,1006.68
2023-05-15T04:41:01.062Z,1006.63
2023-05-15T04:43:05.048Z,1006.65
2023-05-15T04:44:05.029Z,1006.69
2023-05-15T04:46:09.037Z,1006.67
2023-05-15T04:47:08.995Z,1006.67
2023-05-15T04:49:12.987Z,1006.65
2023-05-15T04:50:12.965Z,1006.66
2023-05-15T04:52:16.945Z,1006.64
2023-05-15T04:53:16.935Z,1006.64
2023-05-15T04:55:20.941Z,1006.61
2023-05-15T04:56:20.901Z,1006.65
2023-05-15T04:58:24.900Z,1006.64
2023-05-15T04:59:24.869Z,1006.63
2023-05-15T05:01:28.908Z,1006.64
2023-05-15T05:02:28.870Z,1006.63
2023-05-15T05:04:32.814Z,1006.62
2023-05-15T05:05:32.897Z,1006.64
2023-05-15T05:07:36.798Z,1006.62
2023-05-15T05:08:36.776Z,1006.56
2023-05-15T05:10:40.771Z,1006.52
2023-05-15T05:11:40.761Z,1006.49
2023-05-15T05:13:44.750Z,1006.56
2023-05-15T05:14:44.764Z,1006.60
2023-05-15T05:16:48.728Z,1006.54
2023-05-15T05:17:48.860Z,1006.54
2023-05-15T05:19:41.643Z,1006.52
2023-05-15T05:20:41.608Z,1006.51
2023-05-15T05:22:45.590Z,1006.51
2023-05-15T05:23:45.584Z,1006.49
2023-05-15T05:25:49.579Z,1006.48
2023-05-15T05:26:49.554Z,1006.44
2023-05-15T05:28:53.539Z,1006.34
2023-05-15T05:29:53.523Z,1006.32
2023-05-15T05:31:57.582Z,1006.28
2023-05-15T05:32:57.538Z,1006.29
2023-05-15T05:35:01.492Z,1006.27
2023-05-15T05:36:01.604Z,1006.25
2023-05-15T05:38:05.465Z,1006.20
2023-05-15T05:39:05.536Z,1006.20
2023-05-15T05:41:09.440Z,1006.18
2023-05-15T05:42:09.437Z,1006.19
2023-05-15T05:44:13.433Z,1006.25
2023-05-15T05:45:13.404Z,1006.23
2023-05-15T05:47:17.451Z,1006.29
2023-05-15T05:48:17.389Z,1006.29
2023-05-15T05:50:10.295Z,1006.28
2023-05-15T05:51:10.292Z,1006.28
2023-05-15T05:53:14.274Z,1006.26
2023-05-15T05:54:14.257Z,1006.23
2023-05-15T05:56:18.263Z,1006.21
2023-05-15T05:57:18.235Z,1006.19
2023-05-15T05:59:22.226Z,1006.16
2023-05-15T06:00:22.214Z,1006.19
2023-05-15T06:02:26.453Z,1006.07
2023-05-15T06:03:26.395Z,1006.06
2023-05-15T06:05:30.416Z,1006.05
2023-05-15T06:06:30.298Z,1006.03
2023-05-15T06:08:34.294Z,1005.97
2023-05-15T06:09:34.290Z,1005.98
2023-05-15T06:11:38.271Z,1005.93
2023-05-15T06:12:38.260Z,1005.94
2023-05-15T06:14:42.256Z,1005.91
2023-05-15T06:15:42.247Z,1005.88
2023-05-15T06:17:46.270Z,1005.90
2023-05-15T06:18:46.254Z,1005.92
2023-05-15T06:20:50.211Z,1005.92
2023-05-15T06:21:50.203Z,1005.90
2023-05-15T06:23:54.173Z,1005.89
2023-05-15T06:24:54.172Z,1005.90
2023-05-15T06:26:58.216Z,1005.88
2023-05-15T06:27:58.211Z,1005.87
2023-05-15T06:29:51.120Z,1005.85
2023-05-15T06:30:51.159Z,1005.85
2023-05-15T06:32:55.100Z,1005.87
2023-05-15T06:33:55.084Z,1005.87
2023-05-15T06:35:59.083Z,1005.89
2023-05-15T06:36:59.066Z,1005.89
2023-05-15T06:39:03.054Z,1005.89
2023-05-15T06:40:03.047Z,1005.89
2023-05-15T06:42:07.025Z,1005.90
2023-05-15T06:43:07.019Z,1005.86
2023-05-15T06:45:10.996Z,1005.85
2023-05-15T06:46:11.081Z,1005.84
2023-05-15T06:48:15.021Z,1005.83
2023-05-15T06:49:14.959Z,1005.79
2023-05-15T06:51:18.953Z,1005.74
2023-05-15T06:52:18.943Z,1005.74
2023-05-15T06:54:22.940Z,1005.68
2023-05-15T06:55:22.985Z,1005.67
2023-05-15T06:57:26.907Z,1005.64
2023-05-15T06:58:26.902Z,1005.65
2023-05-15T07:00:19.801Z,1005.66
2023-05-15T07:01:19.850Z,1005.62
2023-05-15T07:03:23.814Z,1005.62
2023-05-15T07:04:23.827Z,1005.63
2023-05-15T07:06:27.760Z,1005.60
2023-05-15T07:07:27.762Z,1005.59
2023-05-15T07:09:31.727Z,1005.54
2023-05-15T07:10:31.735Z,1005.53
2023-05-15T07:12:35.713Z,1005.53
2023-05-15T07:13:35.695Z,1005.55
2023-05-15T07:15:39.684Z,1005.56
2023-05-15T07:16:39.673Z,1005.54
2023-05-15T07:18:43.710Z,1005.60
2023-05-15T07:19:43.648Z,1005.58
2023-05-15T07:21:47.639Z,1005.58
2023-05-15T07:22:55.537Z,1005.56
2023-05-15T07:24:51.612Z,1005.55
2023-05-15T07:25:51.600Z,1005.56
2023-05-15T07:27:55.591Z,1005.58
2023-05-15T07:28:55.580Z,1005.52
2023-05-15T07:31:01.049Z,1005.49
2023-05-15T07:31:59.703Z,1005.52
2023-05-15T07:34:03.581Z,1005.50
2023-05-15T07:35:03.571Z,1005.48
2023-05-15T07:37:07.554Z,1005.47
2023-05-15T07:38:07.864Z,1005.46
2023-05-15T07:40:00.493Z,1005.50
2023-05-15T07:41:00.458Z,1005.47
2023-05-15T07:43:04.431Z,1005.46
2023-05-15T07:44:04.443Z,1005.46
2023-05-15T07:46:08.501Z,1005.45
2023-05-15T07:47:08.425Z,1005.41
2023-05-15T07:49:12.481Z,1005.42
2023-05-15T07:50:12.436Z,1005.43
2023-05-15T07:52:16.395Z,1005.39
2023-05-15T07:53:16.392Z,1005.39
2023-05-15T07:55:20.374Z,1005.37
2023-05-15T07:56:20.362Z,1005.38
2023-05-15T07:58:24.355Z,1005.32
2023-05-15T07:59:24.398Z,1005.34
2023-05-15T08:01:29.546Z,1005.30
2023-05-15T08:02:28.382Z,1005.33
2023-05-15T08:04:32.335Z,1005.28
2023-05-15T08:05:32.304Z,1005.24
2023-05-15T08:07:36.406Z,1005.24
2023-05-15T08:08:36.349Z,1005.21
2023-05-15T08:10:40.264Z,1005.20
2023-05-15T08:11:40.261Z,1005.19
2023-05-15T08:13:44.399Z,1005.11
2023-05-15T08:14:44.389Z,1005.16
2023-05-15T08:16:48.358Z,1005.17
2023-05-15T08:17:48.381Z,1005.14
2023-05-15T08:19:41.254Z,1005.12
2023-05-15T08:20:41.250Z,1005.09
2023-05-15T08:22:45.234Z,1005.09
2023-05-15T08:23:45.314Z,1005.03
2023-05-15T08:25:49.209Z,1005.07
2023-05-15T08:26:49.200Z,1005.02
2023-05-15T08:28:53.180Z,1005.06
2023-05-15T08:29:53.189Z,1005.07
2023-05-15T08:31:57.166Z,1005.04
2023-05-15T08:32:57.198Z,1005.03
2023-05-15T08:35:01.145Z,1005.00
2023-05-15T08:36:01.165Z,1005.01
2023-05-15T08:38:05.114Z,1004.98
2023-05-15T08:39:05.103Z,1004.99
2023-05-15T08:41:09.090Z,1004.98
2023-05-15T08:42:09.076Z,1004.96
2023-05-15T08:44:13.071Z,1004.98
2023-05-15T08:45:13.050Z,1004.93
2023-05-15T08:47:17.041Z,1004.90
2023-05-15T08:48:17.192Z,1004.88
2023-05-15T08:50:09.948Z,1004.89
2023-05-15T08:51:09.933Z,1004.88
2023-05-15T08:53:13.934Z,1004.87
2023-05-15T08:54:13.918Z,1004.84
2023-05-15T08:56:17.910Z,1004.84
2023-05-15T08:57:17.893Z,1004.79
2023-05-15T08:59:21.879Z,1004.74
2023-05-15T09:00:21.878Z,1004.74
2023-05-15T09:02:25.878Z,1004.74
2023-05-15T09:03:25.990Z,1004.78
2023-05-15T09:05:29.869Z,1004.75
2023-05-15T09:06:29.838Z,1004.75
2023-05-15T09:08:33.832Z,1004.75
2023-05-15T09:09:33.812Z,1004.73
2023-05-15T09:11:37.796Z,1004.74
2023-05-15T09:12:37.787Z,1004.71
2023-05-15T09:14:41.778Z,1004.68
2023-05-15T09:15:41.770Z,1004.70
2023-05-15T09:17:45.781Z,1004.65
2023-05-15T09:18:45.757Z,1004.70
2023-05-15T09:20:49.713Z,1004.69
2023-05-15T09:21:49.712Z,1004.66
2023-05-15T09:23:53.698Z,1004.67
2023-05-15T09:24:53.725Z,1004.66
2023-05-15T09:26:57.673Z,1004.66
2023-05-15T09:27:57.663Z,1004.57
2023-05-15T09:29:50.573Z,1004.59
2023-05-15T09:30:50.567Z,1004.59
2023-05-15T09:32:54.569Z,1004.58
2023-05-15T09:33:54.537Z,1004.52
2023-05-15T09:35:58.528Z,1004.53
2023-05-15T09:36:58.523Z,1004.55
2023-05-15T09:37:58.521Z,1004.56
2023-05-15T09:38:58.590Z,1004.53
2023-05-15T09:39:58.524Z,1004.53
2023-05-15T09:40:58.510Z,1004.50
2023-05-15T09:41:58.512Z,1004.54
2023-05-15T09:42:58.514Z,1004.52
2023-05-15T09:43:58.501Z,1004.53
2023-05-15T09:44:58.503Z,1004.52
2023-05-15T09:45:58.639Z,1004.52
2023-05-15T09:46:58.586Z,1004.54
2023-05-15T09:47:58.613Z,1004.50
2023-05-15T09:48:58.578Z,1004.49
2023-05-15T09:49:58.491Z,1004.49
2023-05-15T09:50:58.489Z,1004.47
2023-05-15T09:51:58.486Z,1004.45
2023-05-15T09:52:58.486Z,1004.46
2023-05-15T09:53:58.481Z,1004.44
2023-05-15T09:54:58.484Z,1004.43
2023-05-15T09:55:58.514Z,1004.42
2023-05-15T09:56:58.480Z,1004.44
2023-05-15T09:57:58.476Z,1004.44
2023-05-15T09:58:58.539Z,1004.40
2023-05-15T09:59:58.478Z,1004.45
2023-05-15T10:00:58.466Z,1004.45
2023-05-15T10:01:58.555Z,1004.45
2023-05-15T10:02:58.510Z,1004.50
2023-05-15T10:03:58.459Z,1004.51
2023-05-15T10:04:58.546Z,1004.50
2023-05-15T10:05:58.475Z,1004.54
2023-05-15T10:06:58.487Z,1004.56
2023-05-15T10:07:58.469Z,1004.53
2023-05-15T10:08:58.454Z,1004.50
2023-05-15T10:09:58.446Z,1004.50
2023-05-15T10:10:58.452Z,1004.50
2023-05-15T10:11:58.441Z,1004.49
2023-05-15T10:12:58.438Z,1004.50
2023-05-15T10:13:58.441Z,1004.50
2023-05-15T10:14:58.439Z,1004.51
2023-05-15T10:15:58.456Z,1004.49
2023-05-15T10:16:58.433Z,1004.51
2023-05-15T10:17:58.466Z,1004.51
2023-05-15T10:18:58.469Z,1004.52
2023-05-15T10:19:59.091Z,1004.55
2023-05-15T10:20:58.430Z,1004.51
2023-05-15T10:21:58.419Z,1004.50
2023-05-15T10:22:58.417Z,1004.46
2023-05-15T10:23:58.414Z,1004.49
2023-05-15T10:24:58.434Z,1004.46
2023-05-15T10:25:58.409Z,1004.50
2023-05-15T10:26:58.405Z,1004.47
2023-05-15T10:27:58.404Z,1004.50
2023-05-15T10:28:58.403Z,1004.47
2023-05-15T10:29:58.404Z,1004.45
2023-05-15T10:30:58.441Z,1004.45
2023-05-15T10:31:58.439Z,1004.46
2023-05-15T10:32:58.420Z,1004.38
2023-05-15T10:33:58.388Z,1004.42
2023-05-15T10:34:58.396Z,1004.43
2023-05-15T10:35:58.388Z,1004.41
2023-05-15T10:36:58.395Z,1004.37
2023-05-15T10:37:58.384Z,1004.39
2023-05-15T10:38:58.375Z,1004.34
2023-05-15T10:39:58.377Z,1004.32
2023-05-15T10:41:13.172Z,1004.30
2023-05-15T10:41:58.371Z,1004.27
2023-05-15T10:42:58.365Z,1004.33
2023-05-15T10:43:58.361Z,1004.28
2023-05-15T10:44:58.360Z,1004.27
2023-05-15T10:45:58.364Z,1004.26
2023-05-15T10:46:58.416Z,1004.29
2023-05-15T10:47:58.383Z,1004.29
2023-05-15T10:48:58.365Z,1004.28
2023-05-15T10:49:58.352Z,1004.29
2023-05-15T10:50:58.343Z,1004.24
2023-05-15T10:51:58.337Z,1004.28
2023-05-15T10:52:58.341Z,1004.25
2023-05-15T10:53:58.337Z,1004.24
2023-05-15T10:54:58.348Z,1004.23
2023-05-15T10:55:58.385Z,1004.20
2023-05-15T10:56:58.328Z,1004.19
2023-05-15T10:57:58.325Z,1004.22
2023-05-15T10:58:58.323Z,1004.16
2023-05-15T10:59:58.326Z,1004.19
2023-05-15T11:00:58.329Z,1004.16
2023-05-15T11:01:58.311Z,1004.13
2023-05-15T11:02:58.391Z,1004.19
2023-05-15T11:03:58.317Z,1004.12
2023-05-15T11:04:58.308Z,1004.11
2023-05-15T11:05:58.304Z,1004.07
2023-05-15T11:06:58.305Z,1004.02
2023-05-15T11:07:58.296Z,1004.03
2023-05-15T11:08:58.296Z,1004.04
2023-05-15T11:09:58.293Z,1004.02
2023-05-15T11:10:58.291Z,1003.97
2023-05-15T11:11:58.316Z,1003.99
2023-05-15T11:12:58.287Z,1003.98
2023-05-15T11:13:58.282Z,1003.96
2023-05-15T11:14:58.282Z,1003.94
2023-05-15T11:15:58.281Z,1003.94
2023-05-15T11:16:58.364Z,1003.93
2023-05-15T11:17:58.306Z,1003.91
2023-05-15T11:18:58.312Z,1003.89
2023-05-15T11:19:58.276Z,1003.89
2023-05-15T11:20:58.268Z,1003.88
2023-05-15T11:21:58.275Z,1003.91
2023-05-15T11:22:58.268Z,1003.89
2023-05-15T11:23:58.261Z,1003.86
2023-05-15T11:24:58.265Z,1003.86
2023-05-15T11:25:58.281Z,1003.88
2023-05-15T11:26:59.247Z,1003.88
2023-05-15T11:27:58.265Z,1003.85
2023-05-15T11:28:58.254Z,1003.82
2023-05-15T11:29:58.250Z,1003.78
2023-05-15T11:30:58.299Z,1003.78
2023-05-15T11:31:58.248Z,1003.72
2023-05-15T11:32:58.378Z,1003.76
2023-05-15T11:33:58.245Z,1003.69
2023-05-15T11:34:58.247Z,1003.62
2023-05-15T11:35:58.260Z,1003.65
2023-05-15T11:36:58.246Z,1003.62
2023-05-15T11:37:58.242Z,1003.62
2023-05-15T11:38:58.238Z,1003.58
2023-05-15T11:39:58.241Z,1003.58
2023-05-15T11:40:58.242Z,1003.61
2023-05-15T11:41:59.288Z,1003.62
2023-05-15T11:42:58.234Z,1003.61
2023-05-15T11:43:58.234Z,1003.61
2023-05-15T11:44:58.234Z,1003.62
2023-05-15T11:45:58.342Z,1003.60
2023-05-15T11:46:58.250Z,1003.60
2023-05-15T11:47:58.304Z,1003.60
2023-05-15T11:49:00.067Z,1003.58
2023-05-15T11:49:58.224Z,1003.55
2023-05-15T11:50:58.223Z,1003.55
2023-05-15T11:51:58.218Z,1003.51
2023-05-15T11:52:58.218Z,1003.49
2023-05-15T11:53:58.218Z,1003.51
2023-05-15T11:54:58.221Z,1003.52
2023-05-15T11:55:58.218Z,1003.46
2023-05-15T11:56:58.218Z,1003.48
2023-05-15T11:57:58.222Z,1003.46
2023-05-15T11:58:58.222Z,1003.46
2023-05-15T11:59:58.216Z,1003.45
2023-05-15T12:00:58.209Z,1003.43
2023-05-15T12:01:58.209Z,1003.42
2023-05-15T12:02:58.300Z,1003.36
2023-05-15T12:03:58.645Z,1003.37
2023-05-15T12:04:58.238Z,1003.38
2023-05-15T12:06:00.186Z,1003.32
2023-05-15T12:06:58.304Z,1003.34
2023-05-15T12:07:58.196Z,1003.36
2023-05-15T12:08:58.202Z,1003.34
2023-05-15T12:09:58.197Z,1003.24
2023-05-15T12:10:58.199Z,1003.29
2023-05-15T12:11:58.193Z,1003.25
2023-05-15T12:12:58.190Z,1003.23
2023-05-15T12:13:58.191Z,1003.24
2023-05-15T12:14:58.189Z,1003.21
2023-05-15T12:15:58.258Z,1003.18
2023-05-15T12:16:58.345Z,1003.17
2023-05-15T12:17:58.218Z,1003.19
2023-05-15T12:18:58.232Z,1003.18
2023-05-15T12:19:58.184Z,1003.20
2023-05-15T12:20:58.187Z,1003.19
2023-05-15T12:21:58.192Z,1003.17
2023-05-15T12:22:58.177Z,1003.11
2023-05-15T12:24:58.174Z,1003.12
2023-05-15T12:25:58.171Z,1003.08
2023-05-15T12:26:58.166Z,1003.07
2023-05-15T12:27:58.168Z,1003.04
2023-05-15T12:28:58.167Z,1003.03
2023-05-15T12:29:58.167Z,1002.99
2023-05-15T12:30:58.173Z,1003.01
2023-05-15T12:31:58.199Z,1002.92
2023-05-15T12:32:58.217Z,1002.98
2023-05-15T12:33:58.158Z,1002.97
2023-05-15T12:34:58.155Z,1002.99
2023-05-15T12:36:01.072Z,1002.97
2023-05-15T12:36:58.151Z,1002.96
2023-05-15T12:37:58.150Z,1002.98
2023-05-15T12:38:58.152Z,1003.01
2023-05-15T12:39:58.148Z,1003.00
2023-05-15T12:40:58.146Z,1003.04
2023-05-15T12:41:58.150Z,1003.03
2023-05-15T12:42:58.146Z,1003.03
2023-05-15T12:43:58.142Z,1003.08
2023-05-15T12:44:58.139Z,1003.03
2023-05-15T12:45:58.206Z,1003.02
2023-05-15T12:46:58.140Z,1003.00
2023-05-15T12:47:58.235Z,1002.98
2023-05-15T12:48:58.141Z,1002.99
2023-05-15T12:49:58.129Z,1002.95
2023-05-15T12:50:58.129Z,1002.98
2023-05-15T12:51:58.146Z,1002.98
2023-05-15T12:52:58.140Z,1002.98
2023-05-15T12:53:58.146Z,1002.94
2023-05-15T12:54:58.131Z,1002.93
2023-05-15T12:55:58.120Z,1002.91
2023-05-15T12:56:59.248Z,1002.91
2023-05-15T12:57:58.122Z,1002.92
2023-05-15T12:58:58.118Z,1002.84
2023-05-15T12:59:58.112Z,1002.85
2023-05-15T13:00:58.137Z,1002.83
2023-05-15T13:01:58.153Z,1002.84
2023-05-15T13:02:58.188Z,1002.81
2023-05-15T13:03:58.141Z,1002.85
2023-05-15T13:04:58.097Z,1002.88
2023-05-15T13:05:58.101Z,1002.84
2023-05-15T13:06:58.101Z,1002.84
2023-05-15T13:07:58.094Z,1002.78
2023-05-15T13:08:58.094Z,1002.84
2023-05-15T13:09:58.090Z,1002.79
2023-05-15T13:10:58.120Z,1002.76
2023-05-15T13:11:58.092Z,1002.79
2023-05-15T13:12:58.098Z,1002.84
2023-05-15T13:13:58.126Z,1002.81
2023-05-15T13:14:58.086Z,1002.82
2023-05-15T13:15:58.117Z,1002.83
2023-05-15T13:16:58.085Z,1002.82
2023-05-15T13:17:58.113Z,1002.77
2023-05-15T13:18:58.100Z,1002.72
2023-05-15T13:19:58.079Z,1002.71
2023-05-15T13:20:58.091Z,1002.73
2023-05-15T13:21:58.077Z,1002.75
2023-05-15T13:22:58.074Z,1002.77
2023-05-15T13:23:58.178Z,1002.78
2023-05-15T13:24:58.117Z,1002.76
2023-05-15T13:25:58.076Z,1002.79
2023-05-15T13:26:58.076Z,1002.74
2023-05-15T13:27:58.086Z,1002.84
2023-05-15T13:28:58.076Z,1002.82
2023-05-15T13:29:58.075Z,1002.83
2023-05-15T13:30:58.124Z,1002.88
2023-05-15T13:31:58.107Z,1002.99
2023-05-15T13:32:58.116Z,1003.11
2023-05-15T13:33:58.073Z,1003.20
2023-05-15T13:34:58.071Z,1003.14
2023-05-15T13:35:58.072Z,1003.23
2023-05-15T13:36:58.083Z,1003.36
2023-05-15T13:37:58.072Z,1003.29
2023-05-15T13:38:58.070Z,1003.40
2023-05-15T13:39:58.072Z,1003.62
2023-05-15T13:40:58.083Z,1003.50
2023-05-15T13:41:58.071Z,1003.54
2023-05-15T13:42:58.066Z,1003.55
2023-05-15T13:43:58.067Z,1003.56
2023-05-15T13:44:58.062Z,1003.62
2023-05-15T13:45:58.075Z,1003.65
2023-05-15T13:46:58.073Z,1003.67
2023-05-15T13:47:58.069Z,1003.73
2023-05-15T13:48:58.053Z,1003.65
2023-05-15T13:49:58.055Z,1003.76
2023-05-15T13:50:58.064Z,1003.99
2023-05-15T13:51:58.045Z,1003.81
2023-05-15T13:52:58.045Z,1003.74
2023-05-15T13:53:58.037Z,1003.80
2023-05-15T13:54:58.033Z,1003.86
2023-05-15T13:55:58.049Z,1003.67
2023-05-15T13:56:58.029Z,1003.81
2023-05-15T13:57:58.033Z,1003.84
2023-05-15T13:58:58.020Z,1003.78
2023-05-15T13:59:58.019Z,1003.79
2023-05-15T14:00:58.046Z,1003.73
2023-05-15T14:01:58.008Z,1003.79
2023-05-15T14:02:58.004Z,1003.73
2023-05-15T14:03:58.088Z,1003.77
2023-05-15T14:04:57.997Z,1003.76
2023-05-15T14:05:57.992Z,1003.71
2023-05-15T14:06:57.989Z,1003.80
2023-05-15T14:07:57.987Z,1003.66
2023-05-15T14:08:58.000Z,1003.82
2023-05-15T14:09:57.973Z,1003.73
2023-05-15T14:10:57.971Z,1003.72
2023-05-15T14:11:57.990Z,1003.74
2023-05-15T14:12:59.396Z,1003.75
2023-05-15T14:13:57.959Z,1003.70
2023-05-15T14:14:57.953Z,1003.74
2023-05-15T14:15:57.947Z,1003.73
2023-05-15T14:16:58.047Z,1003.66
2023-05-15T14:17:57.977Z,1003.70
2023-05-15T14:18:57.972Z,1003.60
2023-05-15T14:19:57.938Z,1003.62
2023-05-15T14:20:57.924Z,1003.58
2023-05-15T14:21:57.923Z,1003.51
2023-05-15T14:22:57.920Z,1003.47
2023-05-15T14:23:57.917Z,1003.54
2023-05-15T14:24:57.906Z,1003.52
2023-05-15T14:25:57.900Z,1003.44
2023-05-15T14:26:57.901Z,1003.50
2023-05-15T14:27:57.905Z,1003.51
2023-05-15T14:28:57.900Z,1003.44
2023-05-15T14:29:57.880Z,1003.41
2023-05-15T14:30:57.888Z,1003.40
2023-05-15T14:31:57.915Z,1003.32
2023-05-15T14:32:57.964Z,1003.35
2023-05-15T14:33:57.867Z,1003.34
2023-05-15T14:34:57.869Z,1003.33
2023-05-15T14:35:57.873Z,1003.33
2023-05-15T14:36:57.864Z,1003.33
2023-05-15T14:37:57.858Z,1003.36
2023-05-15T14:39:00.219Z,1003.39
2023-05-15T14:39:57.858Z,1003.43
2023-05-15T14:40:57.848Z,1003.41
2023-05-15T14:41:57.834Z,1003.47
2023-05-15T14:42:57.831Z,1003.52
2023-05-15T14:43:57.826Z,1003.53
2023-05-15T14:44:57.829Z,1003.52
2023-05-15T14:45:57.869Z,1003.56
2023-05-15T14:46:57.892Z,1003.54
2023-05-15T14:47:57.886Z,1003.53
2023-05-15T14:48:57.816Z,1003.49
2023-05-15T14:49:57.801Z,1003.50
2023-05-15T14:50:57.792Z,1003.51
2023-05-15T14:51:57.789Z,1003.48
2023-05-15T14:52:57.790Z,1003.50
2023-05-15T14:53:57.789Z,1003.50
2023-05-15T14:55:08.722Z,1003.51
2023-05-15T14:55:57.773Z,1003.46
2023-05-15T14:56:57.954Z,1003.51